Ash, Missouri
Current Conditions -  °F | °C
As of 11:55 AM on Thursday 23 Oct 2014 (Local Time) from KHAE Reporting Station
Scattered Clouds Scattered Clouds  
Wind Chill: 59°   Ceiling: Unl
Heat Index: 59°   Visibility: 10mi
Dew Point: 43°   Wind: 10mph
Humidity: 55%   Direction: 190°S
Pressure: 30.14"   Gusts: NA
Location:  39.4792°N, 92.217°W
Report Text: KHAE 231655Z AUTO 19009KT 10SM SCT045 SCT110 15/06 A3014 RMK AO2
Loading
Personal Weather Stations






























Interactive Weather Map New forecast layout! Learn more

10-Day Weather Forecast

Advertisements
Track Severe Weather on mobile